sensor_id;sensor_type;location;lat;lon;timestamp;P1;durP1;ratioP1;P2;durP2;ratioP2
21426;SDS011;10874;49.452;11.050;2023-08-06T00:02:20;4.13;;;3.80;;
21426;SDS011;10874;49.452;11.050;2023-08-06T00:04:47;4.20;;;3.37;;
21426;SDS011;10874;49.452;11.050;2023-08-06T00:07:14;3.10;;;2.90;;
21426;SDS011;10874;49.452;11.050;2023-08-06T00:09:41;4.90;;;3.03;;
21426;SDS011;10874;49.452;11.050;2023-08-06T00:12:08;3.57;;;3.10;;
21426;SDS011;10874;49.452;11.050;2023-08-06T00:14:34;3.33;;;3.07;;
21426;SDS011;10874;49.452;11.050;2023-08-06T00:17:01;3.03;;;2.80;;
21426;SDS011;10874;49.452;11.050;2023-08-06T00:19:28;3.00;;;2.70;;
21426;SDS011;10874;49.452;11.050;2023-08-06T00:21:55;2.73;;;2.53;;
21426;SDS011;10874;49.452;11.050;2023-08-06T00:24:22;2.97;;;2.73;;
21426;SDS011;10874;49.452;11.050;2023-08-06T00:26:48;3.33;;;2.90;;
21426;SDS011;10874;49.452;11.050;2023-08-06T00:29:15;3.20;;;2.90;;
21426;SDS011;10874;49.452;11.050;2023-08-06T00:31:42;2.97;;;2.67;;
21426;SDS011;10874;49.452;11.050;2023-08-06T00:34:09;3.20;;;2.97;;
21426;SDS011;10874;49.452;11.050;2023-08-06T00:36:35;3.07;;;2.77;;
21426;SDS011;10874;49.452;11.050;2023-08-06T00:39:02;3.83;;;3.53;;
21426;SDS011;10874;49.452;11.050;2023-08-06T00:41:29;4.30;;;3.67;;
21426;SDS011;10874;49.452;11.050;2023-08-06T00:43:55;2.97;;;2.77;;
21426;SDS011;10874;49.452;11.050;2023-08-06T00:46:22;3.70;;;3.30;;
21426;SDS011;10874;49.452;11.050;2023-08-06T00:48:49;3.93;;;2.80;;
21426;SDS011;10874;49.452;11.050;2023-08-06T00:51:17;3.13;;;2.87;;
21426;SDS011;10874;49.452;11.050;2023-08-06T00:53:43;3.20;;;2.90;;
21426;SDS011;10874;49.452;11.050;2023-08-06T00:56:10;3.47;;;2.80;;
21426;SDS011;10874;49.452;11.050;2023-08-06T00:58:38;3.83;;;3.37;;
21426;SDS011;10874;49.452;11.050;2023-08-06T01:01:05;3.47;;;3.13;;
21426;SDS011;10874;49.452;11.050;2023-08-06T01:03:33;3.37;;;3.00;;
21426;SDS011;10874;49.452;11.050;2023-08-06T01:06:00;2.83;;;2.63;;
21426;SDS011;10874;49.452;11.050;2023-08-06T01:08:32;3.00;;;2.70;;
21426;SDS011;10874;49.452;11.050;2023-08-06T01:11:05;3.17;;;2.87;;
21426;SDS011;10874;49.452;11.050;2023-08-06T01:13:54;3.50;;;3.20;;
21426;SDS011;10874;49.452;11.050;2023-08-06T01:16:24;4.17;;;3.00;;
21426;SDS011;10874;49.452;11.050;2023-08-06T01:18:51;3.40;;;3.10;;
21426;SDS011;10874;49.452;11.050;2023-08-06T01:21:18;3.00;;;2.80;;
21426;SDS011;10874;49.452;11.050;2023-08-06T01:23:45;3.37;;;3.07;;
21426;SDS011;10874;49.452;11.050;2023-08-06T01:28:48;3.70;;;3.20;;
21426;SDS011;10874;49.452;11.050;2023-08-06T01:31:38;3.00;;;2.60;;
21426;SDS011;10874;49.452;11.050;2023-08-06T01:34:06;2.53;;;2.33;;
21426;SDS011;10874;49.452;11.050;2023-08-06T01:36:33;3.00;;;2.70;;
21426;SDS011;10874;49.452;11.050;2023-08-06T01:39:00;3.93;;;2.70;;
21426;SDS011;10874;49.452;11.050;2023-08-06T01:41:27;2.60;;;2.40;;
21426;SDS011;10874;49.452;11.050;2023-08-06T01:43:54;3.17;;;2.60;;
21426;SDS011;10874;49.452;11.050;2023-08-06T01:46:20;3.07;;;2.50;;
21426;SDS011;10874;49.452;11.050;2023-08-06T01:48:47;2.93;;;2.50;;
21426;SDS011;10874;49.452;11.050;2023-08-06T01:51:14;3.07;;;2.47;;
21426;SDS011;10874;49.452;11.050;2023-08-06T01:53:41;2.47;;;2.27;;
21426;SDS011;10874;49.452;11.050;2023-08-06T01:56:07;4.43;;;2.50;;
21426;SDS011;10874;49.452;11.050;2023-08-06T01:58:34;2.40;;;2.20;;
21426;SDS011;10874;49.452;11.050;2023-08-06T02:01:01;3.17;;;2.60;;
21426;SDS011;10874;49.452;11.050;2023-08-06T02:03:28;2.40;;;2.20;;
21426;SDS011;10874;49.452;11.050;2023-08-06T02:05:56;3.83;;;2.50;;
21426;SDS011;10874;49.452;11.050;2023-08-06T02:08:22;2.73;;;2.20;;
21426;SDS011;10874;49.452;11.050;2023-08-06T02:10:49;2.53;;;2.37;;
21426;SDS011;10874;49.452;11.050;2023-08-06T02:13:16;2.53;;;2.33;;
21426;SDS011;10874;49.452;11.050;2023-08-06T02:15:44;3.63;;;1.93;;
21426;SDS011;10874;49.452;11.050;2023-08-06T02:18:12;3.17;;;2.53;;
21426;SDS011;10874;49.452;11.050;2023-08-06T02:20:38;3.10;;;2.13;;
21426;SDS011;10874;49.452;11.050;2023-08-06T02:23:05;2.43;;;2.03;;
21426;SDS011;10874;49.452;11.050;2023-08-06T02:25:32;2.50;;;2.30;;
21426;SDS011;10874;49.452;11.050;2023-08-06T02:27:59;2.20;;;2.10;;
21426;SDS011;10874;49.452;11.050;2023-08-06T02:30:26;2.80;;;2.30;;
21426;SDS011;10874;49.452;11.050;2023-08-06T02:32:52;2.27;;;2.17;;
21426;SDS011;10874;49.452;11.050;2023-08-06T02:35:19;2.00;;;1.90;;
21426;SDS011;10874;49.452;11.050;2023-08-06T02:37:46;2.60;;;2.30;;
21426;SDS011;10874;49.452;11.050;2023-08-06T02:40:13;2.40;;;2.20;;
21426;SDS011;10874;49.452;11.050;2023-08-06T02:42:40;2.00;;;1.87;;
21426;SDS011;10874;49.452;11.050;2023-08-06T02:45:06;2.47;;;2.20;;
21426;SDS011;10874;49.452;11.050;2023-08-06T02:47:34;2.20;;;2.00;;
21426;SDS011;10874;49.452;11.050;2023-08-06T02:50:00;2.60;;;2.40;;
21426;SDS011;10874;49.452;11.050;2023-08-06T02:52:29;2.37;;;2.17;;
21426;SDS011;10874;49.452;11.050;2023-08-06T02:54:56;2.17;;;1.97;;
21426;SDS011;10874;49.452;11.050;2023-08-06T02:57:24;2.53;;;2.10;;
21426;SDS011;10874;49.452;11.050;2023-08-06T02:59:53;2.33;;;2.13;;
21426;SDS011;10874;49.452;11.050;2023-08-06T03:02:22;2.57;;;2.23;;
21426;SDS011;10874;49.452;11.050;2023-08-06T03:04:56;3.17;;;2.50;;
21426;SDS011;10874;49.452;11.050;2023-08-06T03:07:27;1.80;;;1.70;;
21426;SDS011;10874;49.452;11.050;2023-08-06T03:09:59;2.47;;;2.20;;
21426;SDS011;10874;49.452;11.050;2023-08-06T03:12:29;2.50;;;2.30;;
21426;SDS011;10874;49.452;11.050;2023-08-06T03:14:58;2.30;;;2.10;;
21426;SDS011;10874;49.452;11.050;2023-08-06T03:17:25;2.33;;;2.13;;
21426;SDS011;10874;49.452;11.050;2023-08-06T03:19:52;3.37;;;2.27;;
21426;SDS011;10874;49.452;11.050;2023-08-06T03:22:19;2.47;;;2.27;;
21426;SDS011;10874;49.452;11.050;2023-08-06T03:24:49;2.10;;;1.90;;
21426;SDS011;10874;49.452;11.050;2023-08-06T03:27:17;3.13;;;2.17;;
21426;SDS011;10874;49.452;11.050;2023-08-06T03:29:44;2.50;;;2.30;;
21426;SDS011;10874;49.452;11.050;2023-08-06T03:32:11;2.40;;;2.20;;
21426;SDS011;10874;49.452;11.050;2023-08-06T03:34:38;2.70;;;2.50;;
21426;SDS011;10874;49.452;11.050;2023-08-06T03:37:06;2.87;;;2.47;;
21426;SDS011;10874;49.452;11.050;2023-08-06T03:39:33;2.97;;;2.47;;
21426;SDS011;10874;49.452;11.050;2023-08-06T03:42:00;2.70;;;2.30;;
21426;SDS011;10874;49.452;11.050;2023-08-06T03:44:27;4.43;;;2.33;;
21426;SDS011;10874;49.452;11.050;2023-08-06T03:46:54;2.47;;;2.27;;
21426;SDS011;10874;49.452;11.050;2023-08-06T03:49:21;1.90;;;1.73;;
21426;SDS011;10874;49.452;11.050;2023-08-06T03:51:48;2.30;;;2.10;;
21426;SDS011;10874;49.452;11.050;2023-08-06T03:54:15;2.40;;;2.20;;
21426;SDS011;10874;49.452;11.050;2023-08-06T03:56:41;2.33;;;2.00;;
21426;SDS011;10874;49.452;11.050;2023-08-06T03:59:08;3.70;;;2.07;;
21426;SDS011;10874;49.452;11.050;2023-08-06T04:01:35;2.17;;;1.97;;
21426;SDS011;10874;49.452;11.050;2023-08-06T04:04:02;1.93;;;1.80;;
21426;SDS011;10874;49.452;11.050;2023-08-06T04:06:28;2.97;;;2.10;;
21426;SDS011;10874;49.452;11.050;2023-08-06T04:08:55;2.50;;;2.30;;
21426;SDS011;10874;49.452;11.050;2023-08-06T04:11:22;1.87;;;1.70;;
21426;SDS011;10874;49.452;11.050;2023-08-06T04:13:49;2.17;;;1.90;;
21426;SDS011;10874;49.452;11.050;2023-08-06T04:16:16;2.07;;;1.83;;
21426;SDS011;10874;49.452;11.050;2023-08-06T04:18:43;2.00;;;1.90;;
21426;SDS011;10874;49.452;11.050;2023-08-06T04:21:10;1.90;;;1.80;;
21426;SDS011;10874;49.452;11.050;2023-08-06T04:23:37;2.73;;;2.37;;
21426;SDS011;10874;49.452;11.050;2023-08-06T04:26:06;3.93;;;2.20;;
21426;SDS011;10874;49.452;11.050;2023-08-06T04:28:34;3.13;;;2.03;;
21426;SDS011;10874;49.452;11.050;2023-08-06T04:31:01;2.37;;;2.17;;
21426;SDS011;10874;49.452;11.050;2023-08-06T04:33:31;2.47;;;2.27;;
21426;SDS011;10874;49.452;11.050;2023-08-06T04:36:01;2.50;;;2.30;;
21426;SDS011;10874;49.452;11.050;2023-08-06T04:38:28;2.97;;;2.67;;
21426;SDS011;10874;49.452;11.050;2023-08-06T04:40:55;2.70;;;2.43;;
21426;SDS011;10874;49.452;11.050;2023-08-06T04:43:23;2.87;;;2.50;;
21426;SDS011;10874;49.452;11.050;2023-08-06T04:45:51;3.00;;;2.60;;
21426;SDS011;10874;49.452;11.050;2023-08-06T04:48:18;2.40;;;2.20;;
21426;SDS011;10874;49.452;11.050;2023-08-06T04:50:45;2.60;;;2.33;;
21426;SDS011;10874;49.452;11.050;2023-08-06T04:53:12;2.17;;;1.97;;
21426;SDS011;10874;49.452;11.050;2023-08-06T04:55:39;2.53;;;2.43;;
21426;SDS011;10874;49.452;11.050;2023-08-06T04:58:05;3.37;;;2.37;;
21426;SDS011;10874;49.452;11.050;2023-08-06T05:00:33;2.87;;;2.67;;
21426;SDS011;10874;49.452;11.050;2023-08-06T05:03:00;2.57;;;2.33;;
21426;SDS011;10874;49.452;11.050;2023-08-06T05:05:27;2.70;;;2.50;;
21426;SDS011;10874;49.452;11.050;2023-08-06T05:07:54;2.57;;;2.13;;
21426;SDS011;10874;49.452;11.050;2023-08-06T05:10:24;3.03;;;2.23;;
21426;SDS011;10874;49.452;11.050;2023-08-06T05:12:51;2.87;;;2.50;;
21426;SDS011;10874;49.452;11.050;2023-08-06T05:15:17;3.00;;;2.27;;
21426;SDS011;10874;49.452;11.050;2023-08-06T05:17:44;3.07;;;2.77;;
21426;SDS011;10874;49.452;11.050;2023-08-06T05:20:11;2.40;;;2.20;;
21426;SDS011;10874;49.452;11.050;2023-08-06T05:22:38;2.90;;;2.33;;
21426;SDS011;10874;49.452;11.050;2023-08-06T05:25:05;2.47;;;2.27;;
21426;SDS011;10874;49.452;11.050;2023-08-06T05:27:33;3.67;;;2.50;;
21426;SDS011;10874;49.452;11.050;2023-08-06T05:29:59;3.53;;;2.40;;
21426;SDS011;10874;49.452;11.050;2023-08-06T05:32:26;3.13;;;2.57;;
21426;SDS011;10874;49.452;11.050;2023-08-06T05:34:53;2.73;;;2.53;;
21426;SDS011;10874;49.452;11.050;2023-08-06T05:37:20;2.47;;;2.27;;
21426;SDS011;10874;49.452;11.050;2023-08-06T05:39:47;2.57;;;2.37;;
21426;SDS011;10874;49.452;11.050;2023-08-06T05:42:13;2.67;;;2.47;;
21426;SDS011;10874;49.452;11.050;2023-08-06T05:44:40;3.40;;;2.60;;
21426;SDS011;10874;49.452;11.050;2023-08-06T05:47:07;4.43;;;2.83;;
21426;SDS011;10874;49.452;11.050;2023-08-06T05:49:33;2.97;;;2.43;;
21426;SDS011;10874;49.452;11.050;2023-08-06T05:52:00;2.50;;;2.30;;
21426;SDS011;10874;49.452;11.050;2023-08-06T05:54:27;2.10;;;2.00;;
21426;SDS011;10874;49.452;11.050;2023-08-06T05:56:54;3.47;;;2.47;;
21426;SDS011;10874;49.452;11.050;2023-08-06T05:59:20;2.50;;;2.30;;
21426;SDS011;10874;49.452;11.050;2023-08-06T06:01:47;2.70;;;2.50;;
21426;SDS011;10874;49.452;11.050;2023-08-06T06:04:14;2.40;;;2.20;;
21426;SDS011;10874;49.452;11.050;2023-08-06T06:06:41;2.87;;;2.67;;
21426;SDS011;10874;49.452;11.050;2023-08-06T06:09:08;3.43;;;2.23;;
21426;SDS011;10874;49.452;11.050;2023-08-06T06:11:35;2.83;;;2.40;;
21426;SDS011;10874;49.452;11.050;2023-08-06T06:14:02;2.87;;;2.30;;
21426;SDS011;10874;49.452;11.050;2023-08-06T06:16:28;2.33;;;2.13;;
21426;SDS011;10874;49.452;11.050;2023-08-06T06:18:55;3.10;;;2.17;;
21426;SDS011;10874;49.452;11.050;2023-08-06T06:21:24;2.50;;;2.30;;
21426;SDS011;10874;49.452;11.050;2023-08-06T06:23:50;3.30;;;2.30;;
21426;SDS011;10874;49.452;11.050;2023-08-06T06:26:20;2.63;;;2.43;;
21426;SDS011;10874;49.452;11.050;2023-08-06T06:28:47;3.87;;;2.57;;
21426;SDS011;10874;49.452;11.050;2023-08-06T06:31:14;2.40;;;2.20;;
21426;SDS011;10874;49.452;11.050;2023-08-06T06:33:41;2.70;;;2.47;;
21426;SDS011;10874;49.452;11.050;2023-08-06T06:36:07;3.33;;;2.60;;
21426;SDS011;10874;49.452;11.050;2023-08-06T06:38:34;3.03;;;2.43;;
21426;SDS011;10874;49.452;11.050;2023-08-06T06:41:01;2.80;;;2.53;;
21426;SDS011;10874;49.452;11.050;2023-08-06T06:43:29;3.33;;;2.67;;
21426;SDS011;10874;49.452;11.050;2023-08-06T06:45:56;3.23;;;2.33;;
21426;SDS011;10874;49.452;11.050;2023-08-06T06:48:28;3.40;;;2.97;;
21426;SDS011;10874;49.452;11.050;2023-08-06T06:50:55;2.87;;;2.33;;
21426;SDS011;10874;49.452;11.050;2023-08-06T06:53:22;3.00;;;2.80;;
21426;SDS011;10874;49.452;11.050;2023-08-06T06:58:21;3.40;;;2.37;;
21426;SDS011;10874;49.452;11.050;2023-08-06T07:00:48;3.30;;;3.00;;
21426;SDS011;10874;49.452;11.050;2023-08-06T07:03:15;2.87;;;2.67;;
21426;SDS011;10874;49.452;11.050;2023-08-06T07:05:42;2.90;;;2.60;;
21426;SDS011;10874;49.452;11.050;2023-08-06T07:08:09;3.70;;;3.30;;
21426;SDS011;10874;49.452;11.050;2023-08-06T07:10:36;3.40;;;2.93;;
21426;SDS011;10874;49.452;11.050;2023-08-06T07:13:03;2.80;;;2.60;;
21426;SDS011;10874;49.452;11.050;2023-08-06T07:15:30;3.10;;;2.80;;
21426;SDS011;10874;49.452;11.050;2023-08-06T07:17:56;2.83;;;2.63;;
21426;SDS011;10874;49.452;11.050;2023-08-06T07:20:23;2.90;;;2.53;;
21426;SDS011;10874;49.452;11.050;2023-08-06T07:22:50;3.90;;;2.73;;
21426;SDS011;10874;49.452;11.050;2023-08-06T07:25:17;2.80;;;2.60;;
21426;SDS011;10874;49.452;11.050;2023-08-06T07:27:44;2.63;;;2.43;;
21426;SDS011;10874;49.452;11.050;2023-08-06T07:30:11;2.63;;;2.40;;
21426;SDS011;10874;49.452;11.050;2023-08-06T07:32:38;3.87;;;2.70;;
21426;SDS011;10874;49.452;11.050;2023-08-06T07:35:04;3.60;;;2.43;;
21426;SDS011;10874;49.452;11.050;2023-08-06T07:37:32;3.10;;;2.67;;
21426;SDS011;10874;49.452;11.050;2023-08-06T07:39:58;2.40;;;2.20;;
21426;SDS011;10874;49.452;11.050;2023-08-06T07:42:25;2.57;;;2.37;;
21426;SDS011;10874;49.452;11.050;2023-08-06T07:44:53;2.63;;;2.43;;
21426;SDS011;10874;49.452;11.050;2023-08-06T07:47:20;3.23;;;2.80;;
21426;SDS011;10874;49.452;11.050;2023-08-06T07:49:47;2.83;;;2.53;;
21426;SDS011;10874;49.452;11.050;2023-08-06T07:52:13;2.23;;;1.97;;
21426;SDS011;10874;49.452;11.050;2023-08-06T07:54:40;3.43;;;2.17;;
21426;SDS011;10874;49.452;11.050;2023-08-06T07:57:07;2.40;;;1.70;;
21426;SDS011;10874;49.452;11.050;2023-08-06T07:59:34;4.10;;;1.50;;
21426;SDS011;10874;49.452;11.050;2023-08-06T08:02:01;1.90;;;1.53;;
21426;SDS011;10874;49.452;11.050;2023-08-06T08:04:28;2.40;;;1.50;;
21426;SDS011;10874;49.452;11.050;2023-08-06T08:06:54;3.60;;;2.00;;
21426;SDS011;10874;49.452;11.050;2023-08-06T08:09:21;4.13;;;1.80;;
21426;SDS011;10874;49.452;11.050;2023-08-06T08:11:48;1.57;;;1.47;;
21426;SDS011;10874;49.452;11.050;2023-08-06T08:14:15;1.80;;;1.70;;
21426;SDS011;10874;49.452;11.050;2023-08-06T08:16:41;2.00;;;1.90;;
21426;SDS011;10874;49.452;11.050;2023-08-06T08:19:08;2.77;;;1.80;;
21426;SDS011;10874;49.452;11.050;2023-08-06T08:21:35;2.33;;;2.00;;
21426;SDS011;10874;49.452;11.050;2023-08-06T08:24:04;3.30;;;1.20;;
21426;SDS011;10874;49.452;11.050;2023-08-06T08:26:31;1.27;;;1.10;;
21426;SDS011;10874;49.452;11.050;2023-08-06T08:28:58;1.40;;;1.10;;
21426;SDS011;10874;49.452;11.050;2023-08-06T08:31:24;1.97;;;1.00;;
21426;SDS011;10874;49.452;11.050;2023-08-06T08:33:51;1.67;;;1.00;;
21426;SDS011;10874;49.452;11.050;2023-08-06T08:36:21;1.13;;;0.87;;
21426;SDS011;10874;49.452;11.050;2023-08-06T08:38:48;0.70;;;0.70;;
21426;SDS011;10874;49.452;11.050;2023-08-06T08:41:15;0.90;;;0.80;;
21426;SDS011;10874;49.452;11.050;2023-08-06T08:43:42;1.00;;;0.70;;
21426;SDS011;10874;49.452;11.050;2023-08-06T08:46:09;5.57;;;1.97;;
21426;SDS011;10874;49.452;11.050;2023-08-06T08:48:37;8.20;;;2.53;;
21426;SDS011;10874;49.452;11.050;2023-08-06T08:51:04;8.63;;;2.40;;
21426;SDS011;10874;49.452;11.050;2023-08-06T08:53:32;2.77;;;1.17;;
21426;SDS011;10874;49.452;11.050;2023-08-06T08:55:59;1.00;;;0.70;;
21426;SDS011;10874;49.452;11.050;2023-08-06T08:58:26;1.03;;;0.73;;
21426;SDS011;10874;49.452;11.050;2023-08-06T09:00:53;0.60;;;0.60;;
21426;SDS011;10874;49.452;11.050;2023-08-06T09:03:20;0.90;;;0.73;;
21426;SDS011;10874;49.452;11.050;2023-08-06T09:05:48;1.27;;;0.80;;
21426;SDS011;10874;49.452;11.050;2023-08-06T09:08:17;2.03;;;0.97;;
21426;SDS011;10874;49.452;11.050;2023-08-06T09:10:44;2.10;;;0.90;;
21426;SDS011;10874;49.452;11.050;2023-08-06T09:13:12;0.67;;;0.60;;
21426;SDS011;10874;49.452;11.050;2023-08-06T09:15:39;2.77;;;0.60;;
21426;SDS011;10874;49.452;11.050;2023-08-06T09:18:09;0.50;;;0.50;;
21426;SDS011;10874;49.452;11.050;2023-08-06T09:20:38;0.60;;;0.50;;
21426;SDS011;10874;49.452;11.050;2023-08-06T09:23:08;0.80;;;0.50;;
21426;SDS011;10874;49.452;11.050;2023-08-06T09:25:39;0.40;;;0.40;;
21426;SDS011;10874;49.452;11.050;2023-08-06T09:28:07;0.50;;;0.50;;
21426;SDS011;10874;49.452;11.050;2023-08-06T09:30:35;1.27;;;0.53;;
21426;SDS011;10874;49.452;11.050;2023-08-06T09:33:02;0.60;;;0.60;;
21426;SDS011;10874;49.452;11.050;2023-08-06T09:35:30;1.57;;;0.70;;
21426;SDS011;10874;49.452;11.050;2023-08-06T09:38:06;0.50;;;0.50;;
21426;SDS011;10874;49.452;11.050;2023-08-06T09:40:34;0.60;;;0.50;;
21426;SDS011;10874;49.452;11.050;2023-08-06T09:43:00;1.70;;;0.60;;
21426;SDS011;10874;49.452;11.050;2023-08-06T09:45:35;0.43;;;0.40;;
21426;SDS011;10874;49.452;11.050;2023-08-06T09:48:03;0.60;;;0.60;;
21426;SDS011;10874;49.452;11.050;2023-08-06T09:50:30;0.93;;;0.53;;
21426;SDS011;10874;49.452;11.050;2023-08-06T09:53:02;0.60;;;0.53;;
21426;SDS011;10874;49.452;11.050;2023-08-06T09:55:29;0.60;;;0.53;;
21426;SDS011;10874;49.452;11.050;2023-08-06T09:57:55;0.67;;;0.67;;
21426;SDS011;10874;49.452;11.050;2023-08-06T10:00:22;0.60;;;0.50;;
21426;SDS011;10874;49.452;11.050;2023-08-06T10:02:49;0.50;;;0.50;;
21426;SDS011;10874;49.452;11.050;2023-08-06T10:05:20;0.57;;;0.50;;
21426;SDS011;10874;49.452;11.050;2023-08-06T10:07:47;0.90;;;0.63;;
21426;SDS011;10874;49.452;11.050;2023-08-06T10:10:15;0.77;;;0.73;;
21426;SDS011;10874;49.452;11.050;2023-08-06T10:12:43;0.60;;;0.60;;
21426;SDS011;10874;49.452;11.050;2023-08-06T10:15:12;0.60;;;0.60;;
21426;SDS011;10874;49.452;11.050;2023-08-06T10:17:40;0.87;;;0.60;;
21426;SDS011;10874;49.452;11.050;2023-08-06T10:20:17;1.20;;;0.50;;
21426;SDS011;10874;49.452;11.050;2023-08-06T10:22:45;0.50;;;0.50;;
21426;SDS011;10874;49.452;11.050;2023-08-06T10:25:16;1.13;;;0.60;;
21426;SDS011;10874;49.452;11.050;2023-08-06T10:30:31;0.40;;;0.40;;
21426;SDS011;10874;49.452;11.050;2023-08-06T10:35:27;0.63;;;0.40;;
21426;SDS011;10874;49.452;11.050;2023-08-06T10:37:58;1.23;;;0.50;;
21426;SDS011;10874;49.452;11.050;2023-08-06T10:40:26;1.10;;;0.70;;
21426;SDS011;10874;49.452;11.050;2023-08-06T10:42:52;0.60;;;0.60;;
21426;SDS011;10874;49.452;11.050;2023-08-06T10:45:19;0.70;;;0.70;;
21426;SDS011;10874;49.452;11.050;2023-08-06T10:47:46;0.53;;;0.53;;
21426;SDS011;10874;49.452;11.050;2023-08-06T10:50:16;0.50;;;0.50;;
21426;SDS011;10874;49.452;11.050;2023-08-06T10:52:44;0.37;;;0.37;;
21426;SDS011;10874;49.452;11.050;2023-08-06T10:55:11;0.57;;;0.57;;
21426;SDS011;10874;49.452;11.050;2023-08-06T10:57:39;1.07;;;0.50;;
21426;SDS011;10874;49.452;11.050;2023-08-06T11:00:06;0.50;;;0.40;;
21426;SDS011;10874;49.452;11.050;2023-08-06T11:02:42;2.07;;;0.60;;
21426;SDS011;10874;49.452;11.050;2023-08-06T11:05:11;0.50;;;0.40;;
21426;SDS011;10874;49.452;11.050;2023-08-06T11:07:38;0.30;;;0.30;;
21426;SDS011;10874;49.452;11.050;2023-08-06T11:10:08;1.17;;;0.50;;
21426;SDS011;10874;49.452;11.050;2023-08-06T11:12:36;0.60;;;0.60;;
21426;SDS011;10874;49.452;11.050;2023-08-06T11:15:03;0.57;;;0.53;;
21426;SDS011;10874;49.452;11.050;2023-08-06T11:17:31;1.40;;;0.70;;
21426;SDS011;10874;49.452;11.050;2023-08-06T11:19:59;0.90;;;0.80;;
21426;SDS011;10874;49.452;11.050;2023-08-06T11:22:26;0.60;;;0.50;;
21426;SDS011;10874;49.452;11.050;2023-08-06T11:24:53;0.60;;;0.50;;
21426;SDS011;10874;49.452;11.050;2023-08-06T11:27:19;0.63;;;0.60;;
21426;SDS011;10874;49.452;11.050;2023-08-06T11:29:46;0.90;;;0.60;;
21426;SDS011;10874;49.452;11.050;2023-08-06T11:32:13;1.00;;;0.50;;
21426;SDS011;10874;49.452;11.050;2023-08-06T11:34:43;0.63;;;0.60;;
21426;SDS011;10874;49.452;11.050;2023-08-06T11:37:10;0.70;;;0.67;;
21426;SDS011;10874;49.452;11.050;2023-08-06T11:39:37;1.33;;;0.60;;
21426;SDS011;10874;49.452;11.050;2023-08-06T11:42:05;0.60;;;0.53;;
21426;SDS011;10874;49.452;11.050;2023-08-06T11:44:34;0.57;;;0.50;;
21426;SDS011;10874;49.452;11.050;2023-08-06T11:47:04;1.27;;;0.50;;
21426;SDS011;10874;49.452;11.050;2023-08-06T11:49:39;1.47;;;0.50;;
21426;SDS011;10874;49.452;11.050;2023-08-06T11:54:39;0.77;;;0.50;;
21426;SDS011;10874;49.452;11.050;2023-08-06T11:57:06;0.40;;;0.40;;
21426;SDS011;10874;49.452;11.050;2023-08-06T11:59:33;0.40;;;0.40;;
21426;SDS011;10874;49.452;11.050;2023-08-06T12:02:04;0.40;;;0.40;;
21426;SDS011;10874;49.452;11.050;2023-08-06T12:07:19;1.33;;;0.57;;
21426;SDS011;10874;49.452;11.050;2023-08-06T12:09:46;0.60;;;0.60;;
21426;SDS011;10874;49.452;11.050;2023-08-06T12:12:13;2.33;;;0.80;;
21426;SDS011;10874;49.452;11.050;2023-08-06T12:14:39;1.33;;;0.80;;
21426;SDS011;10874;49.452;11.050;2023-08-06T12:17:06;1.23;;;0.80;;
21426;SDS011;10874;49.452;11.050;2023-08-06T12:19:33;1.40;;;0.50;;
21426;SDS011;10874;49.452;11.050;2023-08-06T12:21:59;0.93;;;0.50;;
21426;SDS011;10874;49.452;11.050;2023-08-06T12:24:27;1.20;;;0.60;;
21426;SDS011;10874;49.452;11.050;2023-08-06T12:26:58;0.40;;;0.40;;
21426;SDS011;10874;49.452;11.050;2023-08-06T12:29:25;0.50;;;0.50;;
21426;SDS011;10874;49.452;11.050;2023-08-06T12:31:52;1.60;;;0.50;;
21426;SDS011;10874;49.452;11.050;2023-08-06T12:34:19;0.80;;;0.60;;
21426;SDS011;10874;49.452;11.050;2023-08-06T12:36:50;0.60;;;0.60;;
21426;SDS011;10874;49.452;11.050;2023-08-06T12:39:16;1.60;;;0.80;;
21426;SDS011;10874;49.452;11.050;2023-08-06T12:41:43;0.70;;;0.60;;
21426;SDS011;10874;49.452;11.050;2023-08-06T12:44:12;0.50;;;0.50;;
21426;SDS011;10874;49.452;11.050;2023-08-06T12:46:39;0.50;;;0.50;;
21426;SDS011;10874;49.452;11.050;2023-08-06T12:49:06;0.63;;;0.63;;
21426;SDS011;10874;49.452;11.050;2023-08-06T12:51:33;0.50;;;0.50;;
21426;SDS011;10874;49.452;11.050;2023-08-06T12:54:00;2.40;;;0.50;;
21426;SDS011;10874;49.452;11.050;2023-08-06T12:56:27;0.77;;;0.50;;
21426;SDS011;10874;49.452;11.050;2023-08-06T12:58:53;1.30;;;0.80;;
21426;SDS011;10874;49.452;11.050;2023-08-06T13:01:20;0.63;;;0.60;;
21426;SDS011;10874;49.452;11.050;2023-08-06T13:03:47;0.50;;;0.50;;
21426;SDS011;10874;49.452;11.050;2023-08-06T13:06:14;0.50;;;0.50;;
21426;SDS011;10874;49.452;11.050;2023-08-06T13:08:40;1.90;;;0.60;;
21426;SDS011;10874;49.452;11.050;2023-08-06T13:11:07;0.80;;;0.80;;
21426;SDS011;10874;49.452;11.050;2023-08-06T13:13:34;0.50;;;0.50;;
21426;SDS011;10874;49.452;11.050;2023-08-06T13:16:01;0.50;;;0.40;;
21426;SDS011;10874;49.452;11.050;2023-08-06T13:18:27;0.90;;;0.53;;
21426;SDS011;10874;49.452;11.050;2023-08-06T13:20:55;0.63;;;0.50;;
21426;SDS011;10874;49.452;11.050;2023-08-06T13:23:22;0.57;;;0.57;;
21426;SDS011;10874;49.452;11.050;2023-08-06T13:25:49;3.13;;;0.70;;
21426;SDS011;10874;49.452;11.050;2023-08-06T13:28:15;0.80;;;0.53;;
21426;SDS011;10874;49.452;11.050;2023-08-06T13:30:42;0.70;;;0.70;;
21426;SDS011;10874;49.452;11.050;2023-08-06T13:33:09;0.43;;;0.43;;
21426;SDS011;10874;49.452;11.050;2023-08-06T13:35:36;0.50;;;0.50;;
21426;SDS011;10874;49.452;11.050;2023-08-06T13:38:03;0.70;;;0.50;;
21426;SDS011;10874;49.452;11.050;2023-08-06T13:40:32;0.63;;;0.30;;
21426;SDS011;10874;49.452;11.050;2023-08-06T13:42:59;0.67;;;0.30;;
21426;SDS011;10874;49.452;11.050;2023-08-06T13:45:26;0.40;;;0.40;;
21426;SDS011;10874;49.452;11.050;2023-08-06T13:47:53;3.87;;;1.77;;
21426;SDS011;10874;49.452;11.050;2023-08-06T13:50:20;0.77;;;0.77;;
21426;SDS011;10874;49.452;11.050;2023-08-06T13:52:48;0.60;;;0.50;;
21426;SDS011;10874;49.452;11.050;2023-08-06T13:55:15;0.83;;;0.50;;
21426;SDS011;10874;49.452;11.050;2023-08-06T13:57:43;0.40;;;0.40;;
21426;SDS011;10874;49.452;11.050;2023-08-06T14:00:10;3.53;;;2.80;;
21426;SDS011;10874;49.452;11.050;2023-08-06T14:02:41;5.17;;;1.57;;
21426;SDS011;10874;49.452;11.050;2023-08-06T14:05:10;8.30;;;5.50;;
21426;SDS011;10874;49.452;11.050;2023-08-06T14:07:37;5.07;;;4.23;;
21426;SDS011;10874;49.452;11.050;2023-08-06T14:10:04;2.30;;;1.83;;
21426;SDS011;10874;49.452;11.050;2023-08-06T14:12:31;2.10;;;1.73;;
21426;SDS011;10874;49.452;11.050;2023-08-06T14:14:58;1.60;;;1.40;;
21426;SDS011;10874;49.452;11.050;2023-08-06T14:17:25;3.43;;;2.03;;
21426;SDS011;10874;49.452;11.050;2023-08-06T14:19:52;1.53;;;1.33;;
21426;SDS011;10874;49.452;11.050;2023-08-06T14:22:19;1.03;;;0.93;;
21426;SDS011;10874;49.452;11.050;2023-08-06T14:24:45;1.37;;;1.10;;
21426;SDS011;10874;49.452;11.050;2023-08-06T14:27:13;1.07;;;0.93;;
21426;SDS011;10874;49.452;11.050;2023-08-06T14:29:40;1.50;;;0.80;;
21426;SDS011;10874;49.452;11.050;2023-08-06T14:32:07;0.60;;;0.57;;
21426;SDS011;10874;49.452;11.050;2023-08-06T14:34:34;0.50;;;0.50;;
21426;SDS011;10874;49.452;11.050;2023-08-06T14:37:01;2.80;;;0.80;;
21426;SDS011;10874;49.452;11.050;2023-08-06T14:39:28;1.73;;;0.70;;
21426;SDS011;10874;49.452;11.050;2023-08-06T14:41:55;2.33;;;1.03;;
21426;SDS011;10874;49.452;11.050;2023-08-06T14:44:21;0.60;;;0.60;;
21426;SDS011;10874;49.452;11.050;2023-08-06T14:46:48;1.03;;;0.60;;
21426;SDS011;10874;49.452;11.050;2023-08-06T14:49:15;1.30;;;0.70;;
21426;SDS011;10874;49.452;11.050;2023-08-06T14:51:42;0.60;;;0.60;;